Amelia, Virginia
Current Conditions -  °F | °C
As of 10:55 AM on Thursday 27 Nov 2014 (Local Time) from KW81 Reporting Station
Overcast Overcast  
Wind Chill: 42°   Ceiling: 900
Heat Index: 42°   Visibility: 10mi
Dew Point: 39°   Wind: 0mph
Humidity: 88%   Direction: NA
Pressure: 30.04"   Gusts: NA
Location:  37.3498°N, 77.9661°W
Report Text: KW81 271555Z AUTO 00000KT 10SM BKN009 BKN023 OVC028 06/04 A3004 RMK AO1 T00580040
Loading
Personal Weather Stations






























Interactive Weather Map New forecast layout! Learn more

10-Day Weather Forecast

Advertisements
Track Severe Weather on mobile